Time;durP1;ratioP1;P1;durP2;ratioP2;P2;SDS_P1;SDS_P2;PMS_P1;PMS_P2;Temp;Humidity;BMP_temperature;BMP_pressure;BME280_temperature;BME280_humidity;BME280_pressure;Samples;Min_cycle;Max_cycle;Signal;HPM_P1;HPM_P2
2022/01/27 00:01:52;;;;;;;13.73;6.57;;;;;;;-0.95;100.00;61904.16;6086104;23;20164;-79
2022/01/27 00:04:23;;;;;;;4.93;3.92;;;;;;;-0.89;100.00;61910.31;6086275;23;20188;-79
2022/01/27 00:06:50;;;;;;;5.95;3.85;;;;;;;-0.78;100.00;61921.56;6087267;23;20208;-79
2022/01/27 00:09:23;;;;;;;5.95;3.72;;;;;;;-0.72;100.00;61920.72;6087738;23;20451;-77
2022/01/27 00:11:52;;;;;;;3.33;3.10;;;;;;;-0.76;100.00;61918.63;6084673;23;20192;-77
2022/01/27 00:14:19;;;;;;;2.90;2.60;;;;;;;-0.70;100.00;61924.75;6085373;23;20398;-78
2022/01/27 00:16:55;;;;;;;2.50;2.25;;;;;;;-0.86;100.00;61910.91;6086006;23;20184;-78
2022/01/27 00:19:22;;;;;;;3.17;2.85;;;;;;;-0.97;100.00;61897.13;6087527;23;20255;-78
2022/01/27 00:21:49;;;;;;;2.92;2.72;;;;;;;-0.80;100.00;61919.53;6087621;23;20485;-78
2022/01/27 00:24:16;;;;;;;2.83;2.50;;;;;;;-0.73;100.00;61921.69;6088115;23;20215;-79
2022/01/27 00:26:43;;;;;;;4.40;2.70;;;;;;;-0.66;100.00;61933.88;6085725;23;20168;-79
2022/01/27 00:29:11;;;;;;;6.10;3.17;;;;;;;-0.67;100.00;61928.34;6085028;23;20169;-78
2022/01/27 00:31:38;;;;;;;4.03;3.50;;;;;;;-0.75;100.00;61920.16;6085303;23;20224;-78
2022/01/27 00:34:05;;;;;;;2.50;2.30;;;;;;;-0.67;100.00;61930.84;6084758;23;20188;-78
2022/01/27 00:36:33;;;;;;;3.42;2.42;;;;;;;-0.61;100.00;61936.47;6084733;23;20176;-78
2022/01/27 00:39:00;;;;;;;3.55;2.35;;;;;;;-0.69;100.00;61928.78;6084628;23;20176;-77
2022/01/27 00:41:27;;;;;;;3.53;2.72;;;;;;;-0.68;100.00;61929.84;6084029;23;20195;-78
2022/01/27 00:43:54;;;;;;;2.05;1.88;;;;;;;-0.65;100.00;61932.91;6085159;23;20184;-78
2022/01/27 00:46:23;;;;;;;2.47;2.28;;;;;;;-0.80;100.00;61915.03;6083562;23;20175;-78
2022/01/27 00:48:51;;;;;;;1.20;1.10;;;;;;;-0.73;100.00;61924.72;6086917;23;20176;-77
2022/01/27 00:51:21;;;;;;;2.40;2.20;;;;;;;-0.68;100.00;61929.84;6086377;23;20165;-78
2022/01/27 00:53:53;;;;;;;1.48;1.42;;;;;;;-0.51;100.00;61949.22;6090664;23;20184;-77
2022/01/27 00:56:30;;;;;;;1.80;1.70;;;;;;;-0.49;100.00;61951.78;6090332;23;20169;-77
2022/01/27 00:59:16;;;;;;;1.35;1.35;;;;;;;-0.43;100.00;61952.94;6087963;23;20185;-77
2022/01/27 01:01:50;;;;;;;1.70;1.60;;;;;;;-0.42;100.00;61955.94;6090168;23;20183;-78
2022/01/27 01:04:24;;;;;;;2.58;1.58;;;;;;;-0.43;100.00;61957.44;6083405;23;20215;-79
2022/01/27 01:06:52;;;;;;;2.58;1.70;;;;;;;-0.43;100.00;61952.44;6081002;23;20578;-78
2022/01/27 01:14:58;;;;;;;1.48;1.40;;;;;;;-0.51;100.00;61949.22;6079455;23;20421;-78
2022/01/27 01:17:47;;;;;;;2.22;1.80;;;;;;;-0.50;100.00;61947.75;6078583;23;20184;-77
2022/01/27 01:20:31;;;;;;;2.45;1.55;;;;;;;-0.54;100.00;61943.66;6078767;23;20192;-78
2022/01/27 01:31:16;;;;;;;2.60;2.30;;;;;;;-0.53;100.00;61944.66;6078347;23;20195;-78
2022/01/27 01:33:55;;;;;;;2.00;1.70;;;;;;;-0.60;100.00;61940.53;6080045;23;20204;-79
2022/01/27 01:36:35;;;;;;;1.95;1.75;;;;;;;-0.59;100.00;61936.56;6080051;23;20398;-78
2022/01/27 01:39:03;;;;;;;2.40;1.95;;;;;;;-0.56;100.00;61949.09;6077277;23;20179;-78
2022/01/27 01:41:30;;;;;;;2.75;2.22;;;;;;;-0.59;100.00;61941.03;6079003;23;20217;-78
2022/01/27 01:43:57;;;;;;;3.03;2.20;;;;;;;-0.56;100.00;61941.59;6079210;23;20179;-79
2022/01/27 01:46:23;;;;;;;2.47;2.10;;;;;;;-0.60;100.00;61935.00;6078973;23;20173;-79
2022/01/27 01:48:52;;;;;;;4.00;3.15;;;;;;;-0.51;100.00;61956.72;6078995;23;20224;-78
2022/01/27 01:51:26;;;;;;;1.40;1.30;;;;;;;-0.62;100.00;61940.47;6078567;23;20349;-78
2022/01/27 01:53:54;;;;;;;2.45;1.50;;;;;;;-0.56;100.00;61942.13;6080251;23;20409;-78
2022/01/27 01:56:22;;;;;;;3.45;1.65;;;;;;;-0.62;100.00;61937.97;6079240;23;20256;-79
2022/01/27 01:58:49;;;;;;;1.88;1.67;;;;;;;-0.56;100.00;61944.63;6080965;23;20176;-77
2022/01/27 02:01:16;;;;;;;1.23;1.23;;;;;;;-0.65;100.00;61935.41;6081119;23;20200;-78
2022/01/27 02:03:44;;;;;;;2.15;1.95;;;;;;;-0.61;100.00;61933.97;6081361;23;20221;-78
2022/01/27 02:06:19;;;;;;;1.48;1.38;;;;;;;-0.55;100.00;61940.63;6083234;23;20204;-77
2022/01/27 02:09:05;;;;;;;0.77;0.77;;;;;;;-0.62;100.00;61937.97;6088593;23;20180;-78
2022/01/27 02:19:45;;;;;;;0.98;0.88;;;;;;;-0.49;100.00;61951.28;6085675;23;20224;-78
2022/01/27 02:22:13;;;;;;;1.10;1.08;;;;;;;-0.44;100.00;61953.91;6082162;23;20176;-78
2022/01/27 02:24:40;;;;;;;1.67;1.08;;;;;;;-0.44;100.00;61953.91;6079444;23;20237;-77
2022/01/27 02:27:06;;;;;;;0.88;0.88;;;;;;;-0.48;100.00;61952.81;6079958;23;20180;-77
2022/01/27 02:29:34;;;;;;;0.88;0.88;;;;;;;-0.42;99.36;61956.47;6082523;23;20229;-78
2022/01/27 02:32:01;;;;;;;1.65;1.55;;;;;;;-0.46;98.66;61949.34;6080475;23;20169;-78
2022/01/27 02:34:28;;;;;;;0.90;0.90;;;;;;;-0.58;99.91;61942.06;6079916;23;20193;-78
2022/01/27 02:36:56;;;;;;;1.58;1.00;;;;;;;-0.54;99.46;61946.66;6080810;23;20173;-78
2022/01/27 02:39:24;;;;;;;1.00;1.00;;;;;;;-0.64;99.95;61933.41;6081037;23;20263;-77
2022/01/27 02:41:57;;;;;;;1.70;1.60;;;;;;;-0.67;100.00;61932.84;6079532;23;20173;-78
2022/01/27 02:44:30;;;;;;;1.23;1.17;;;;;;;-0.69;100.00;61925.81;6080173;23;20200;-77
2022/01/27 02:46:57;;;;;;;0.60;0.60;;;;;;;-0.77;100.00;61920.63;6079223;23;20172;-77
2022/01/27 02:49:24;;;;;;;0.80;0.80;;;;;;;-0.65;100.00;61930.41;6079767;23;20200;-77
2022/01/27 02:51:51;;;;;;;3.67;1.02;;;;;;;-0.76;100.00;61921.13;6079322;23;20177;-78
2022/01/27 02:54:19;;;;;;;2.97;2.15;;;;;;;-0.86;100.00;61910.91;6079695;23;20266;-77
2022/01/27 02:56:47;;;;;;;3.17;2.03;;;;;;;-0.75;100.00;61924.66;6080337;23;20173;-77
2022/01/27 02:59:16;;;;;;;1.65;1.27;;;;;;;-0.74;100.00;61923.69;6080627;23;20192;-78
2022/01/27 03:01:45;;;;;;;2.08;1.55;;;;;;;-0.63;100.00;61934.94;6078962;23;20172;-79
2022/01/27 03:04:12;;;;;;;1.35;1.25;;;;;;;-0.56;100.00;61944.63;6079384;23;20172;-77
2022/01/27 03:06:39;;;;;;;0.80;0.80;;;;;;;-0.59;100.00;61936.03;6078604;23;20229;-78
2022/01/27 03:09:06;;;;;;;1.33;1.23;;;;;;;-0.59;100.00;61938.53;6079163;23;20173;-78
2022/01/27 03:11:44;;;;;;;2.92;1.27;;;;;;;-0.57;100.00;61940.59;6080583;23;20173;-78
2022/01/27 03:14:14;;;;;;;1.60;1.50;;;;;;;-0.56;100.00;61942.13;6081009;23;20220;-78
2022/01/27 03:16:41;;;;;;;1.27;1.17;;;;;;;-0.50;100.00;61945.25;6080918;23;20225;-79
2022/01/27 03:19:08;;;;;;;1.40;1.30;;;;;;;-0.54;100.00;61944.16;6080465;23;20176;-78
2022/01/27 03:21:35;;;;;;;1.50;1.40;;;;;;;-0.46;100.00;61951.84;6079026;23;20197;-78
2022/01/27 03:24:02;;;;;;;1.60;1.25;;;;;;;-0.49;100.00;61948.78;6079415;23;20177;-78
2022/01/27 03:26:29;;;;;;;1.50;1.40;;;;;;;-0.44;100.00;61953.91;6078648;23;20486;-76
2022/01/27 03:28:57;;;;;;;1.58;1.48;;;;;;;-0.49;100.00;61953.78;6079202;23;20181;-77
2022/01/27 03:31:26;;;;;;;0.98;0.98;;;;;;;-0.61;100.00;61937.00;6079647;23;20173;-77
2022/01/27 03:33:54;;;;;;;2.10;1.30;;;;;;;-0.72;100.00;61927.72;6079064;23;20212;-77
2022/01/27 03:36:21;;;;;;;1.40;1.30;;;;;;;-0.69;100.00;61931.28;6078317;23;20268;-77
2022/01/27 03:38:49;;;;;;;2.17;1.60;;;;;;;-0.68;100.00;61922.34;6082784;23;20223;-77
2022/01/27 03:41:19;;;;;;;1.80;1.70;;;;;;;-0.59;100.00;61938.53;6088418;23;20221;-77
2022/01/27 03:43:48;;;;;;;0.80;0.80;;;;;;;-0.73;100.00;61929.19;6082085;23;20187;-77
2022/01/27 03:46:16;;;;;;;1.67;1.45;;;;;;;-0.85;100.00;61912.44;6084442;23;20430;-78
2022/01/27 03:48:45;;;;;;;2.30;2.10;;;;;;;-0.84;100.00;61915.94;6084565;23;20211;-77
2022/01/27 03:51:12;;;;;;;0.98;0.80;;;;;;;-0.82;100.00;61919.97;6083784;23;20200;-78
2022/01/27 03:53:40;;;;;;;1.40;1.30;;;;;;;-0.75;100.00;61927.16;6082911;23;20275;-78
2022/01/27 03:56:07;;;;;;;1.40;1.30;;;;;;;-0.64;100.00;61933.41;6082752;23;20391;-78
2022/01/27 03:58:34;;;;;;;1.20;1.20;;;;;;;-0.69;100.00;61928.78;6090835;23;20224;-78
2022/01/27 04:01:02;;;;;;;1.55;1.33;;;;;;;-0.74;100.00;61925.69;6082205;23;20205;-80
2022/01/27 04:03:30;;;;;;;1.70;1.60;;;;;;;-0.63;100.00;61934.44;6079911;23;20184;-78
2022/01/27 04:06:06;;;;;;;1.90;1.80;;;;;;;-0.60;100.00;61940.53;6079039;23;20568;-78
2022/01/27 04:08:33;;;;;;;2.22;2.03;;;;;;;-0.64;100.00;61935.91;6080568;23;20176;-78
2022/01/27 04:10:59;;;;;;;2.17;2.08;;;;;;;-0.66;100.00;61934.38;6078577;23;20217;-78
2022/01/27 04:13:26;;;;;;;2.03;1.88;;;;;;;-0.79;100.00;61921.06;6078698;23;20506;-77
2022/01/27 04:15:53;;;;;;;1.85;1.70;;;;;;;-0.87;100.00;61907.34;6077904;23;20232;-78
2022/01/27 04:18:20;;;;;;;0.98;0.98;;;;;;;-0.92;100.00;61907.25;6078994;23;20550;-77
2022/01/27 04:20:46;;;;;;;2.28;1.60;;;;;;;-1.01;100.00;61896.03;6079129;23;20197;-78
2022/01/27 04:23:14;;;;;;;1.90;1.80;;;;;;;-0.97;100.00;61899.63;6078535;23;20233;-77
2022/01/27 04:25:41;;;;;;;2.00;1.42;;;;;;;-0.97;100.00;61899.63;6078878;23;20196;-78
2022/01/27 04:28:12;;;;;;;2.00;1.90;;;;;;;-1.06;100.00;61890.94;6079374;23;20180;-77
2022/01/27 04:30:39;;;;;;;2.20;2.10;;;;;;;-0.87;100.00;61907.88;6077644;23;20198;-78
2022/01/27 04:33:07;;;;;;;1.17;1.17;;;;;;;-1.05;100.00;61894.44;6078109;23;20212;-77
2022/01/27 04:35:37;;;;;;;1.25;1.15;;;;;;;-1.03;100.00;61890.97;6077961;23;20197;-76
2022/01/27 04:38:18;;;;;;;1.90;1.80;;;;;;;-0.92;100.00;61905.25;6077143;23;20488;-77
2022/01/27 04:40:55;;;;;;;1.60;1.50;;;;;;;-0.84;100.00;61910.94;6078285;23;20252;-78
2022/01/27 04:43:28;;;;;;;2.30;2.20;;;;;;;-0.94;100.00;61900.72;6078154;23;20179;-78
2022/01/27 04:46:04;;;;;;;5.20;2.92;;;;;;;-0.77;100.00;61920.09;6078587;23;20197;-78
2022/01/27 04:48:37;;;;;;;2.60;2.03;;;;;;;-0.75;100.00;61925.16;6078312;23;20176;-77
2022/01/27 04:51:09;;;;;;;2.05;1.95;;;;;;;-0.69;100.00;61930.78;6079856;23;20252;-77
2022/01/27 04:53:42;;;;;;;2.17;1.85;;;;;;;-0.67;100.00;61932.84;6077529;23;20205;-77
2022/01/27 04:56:13;;;;;;;2.72;2.53;;;;;;;-0.62;100.00;61932.97;6077977;23;20200;-77
2022/01/27 04:58:40;;;;;;;1.77;1.67;;;;;;;-0.65;100.00;61932.91;6078897;23;20203;-77
2022/01/27 05:01:07;;;;;;;2.50;2.13;;;;;;;-0.58;100.00;61944.56;6077776;23;20184;-78
2022/01/27 05:03:40;;;;;;;2.47;1.95;;;;;;;-0.66;100.00;61931.38;6078629;23;20232;-78
2022/01/27 05:06:07;;;;;;;2.58;1.95;;;;;;;-0.72;100.00;61927.72;6077848;23;20204;-78
2022/01/27 05:08:36;;;;;;;2.65;2.45;;;;;;;-0.86;100.00;61913.38;6079241;23;20177;-78
2022/01/27 05:11:09;;;;;;;1.55;1.45;;;;;;;-0.79;100.00;61923.56;6078026;23;20203;-78
2022/01/27 05:13:42;;;;;;;2.20;2.10;;;;;;;-0.77;100.00;61922.59;6078271;23;20572;-79
2022/01/27 05:16:08;;;;;;;2.28;2.08;;;;;;;-0.87;100.00;61907.88;6077924;23;20193;-78
2022/01/27 05:18:35;;;;;;;1.23;1.20;;;;;;;-0.71;100.00;61926.75;6077941;23;20237;-77
2022/01/27 05:21:03;;;;;;;2.33;2.15;;;;;;;-0.71;100.00;61924.25;6078113;23;20322;-77
2022/01/27 05:23:30;;;;;;;4.43;2.17;;;;;;;-0.65;100.00;61937.38;6077180;23;20173;-76
2022/01/27 05:25:56;;;;;;;2.70;2.50;;;;;;;-0.65;100.00;61932.38;6077465;23;20203;-77
2022/01/27 05:28:24;;;;;;;1.90;1.80;;;;;;;-0.60;100.00;61940.00;6078601;23;20172;-78
2022/01/27 05:30:52;;;;;;;3.70;2.83;;;;;;;-0.64;100.00;61933.41;6079907;23;20539;-77
2022/01/27 05:33:19;;;;;;;1.92;1.75;;;;;;;-0.59;100.00;61941.03;6081764;23;20235;-78
2022/01/27 05:35:46;;;;;;;2.65;2.33;;;;;;;-0.74;100.00;61928.19;6078413;23;20208;-77
2022/01/27 05:38:15;;;;;;;2.33;2.13;;;;;;;-0.80;100.00;61917.03;6080748;23;20181;-78
2022/01/27 05:40:42;;;;;;;2.17;2.08;;;;;;;-0.67;100.00;61935.31;6080810;23;20396;-78
2022/01/27 05:43:10;;;;;;;2.45;2.15;;;;;;;-0.96;100.00;61903.13;6080195;23;20201;-78
2022/01/27 05:45:37;;;;;;;2.25;2.15;;;;;;;-0.87;100.00;61910.38;6079570;23;20193;-77
2022/01/27 05:48:06;;;;;;;2.92;2.72;;;;;;;-0.86;100.00;61913.88;6079766;23;20173;-77
2022/01/27 05:50:34;;;;;;;3.03;2.75;;;;;;;-0.74;100.00;61923.19;6080063;23;20204;-77
2022/01/27 05:53:01;;;;;;;3.00;2.75;;;;;;;-0.78;100.00;61922.09;6079802;23;20181;-77
2022/01/27 05:55:28;;;;;;;2.83;2.63;;;;;;;-0.83;100.00;61914.47;6080010;23;20235;-78
2022/01/27 05:57:55;;;;;;;2.65;2.45;;;;;;;-0.91;100.00;61903.78;6079816;23;20195;-77
2022/01/27 06:00:22;;;;;;;2.58;2.38;;;;;;;-0.92;100.00;61905.25;6079902;23;20192;-78
2022/01/27 06:02:49;;;;;;;4.63;2.83;;;;;;;-0.88;100.00;61904.34;6081977;23;20173;-78
2022/01/27 06:05:17;;;;;;;2.90;2.72;;;;;;;-0.73;100.00;61921.69;6081306;23;20216;-77
2022/01/27 06:07:43;;;;;;;2.67;2.40;;;;;;;-0.66;100.00;61931.38;6080811;23;20172;-77
2022/01/27 06:10:10;;;;;;;2.85;2.55;;;;;;;-0.66;100.00;61931.38;6080322;23;20196;-77
2022/01/27 06:12:56;;;;;;;3.35;3.15;;;;;;;-0.61;100.00;61939.50;6080376;23;20177;-78
2022/01/27 06:15:23;;;;;;;5.72;3.67;;;;;;;-0.57;100.00;61938.59;6077434;23;20192;-78
2022/01/27 06:17:50;;;;;;;3.10;2.90;;;;;;;-0.52;100.00;61945.72;6080425;23;20477;-78
2022/01/27 06:20:19;;;;;;;3.53;3.05;;;;;;;-0.55;100.00;61945.63;6080877;23;20244;-77
2022/01/27 06:22:47;;;;;;;3.45;3.05;;;;;;;-0.50;100.00;61945.75;6081097;23;20184;-78
2022/01/27 06:25:15;;;;;;;3.05;2.80;;;;;;;-0.54;100.00;61946.66;6085166;23;20439;-77
2022/01/27 06:27:42;;;;;;;2.85;2.65;;;;;;;-0.76;100.00;61921.13;6086247;23;20187;-79
2022/01/27 06:30:11;;;;;;;5.05;3.28;;;;;;;-0.80;100.00;61912.56;6085567;23;20525;-77
2022/01/27 06:32:38;;;;;;;3.97;3.30;;;;;;;-0.73;100.00;61924.19;6090695;23;20188;-78
2022/01/27 06:35:06;;;;;;;3.30;3.10;;;;;;;-0.70;100.00;61927.25;6087776;23;20200;-77
2022/01/27 06:37:35;;;;;;;3.75;3.42;;;;;;;-0.63;100.00;61934.94;6088554;23;20184;-77
2022/01/27 06:40:02;;;;;;;3.70;3.40;;;;;;;-0.62;100.00;61930.97;6090765;23;20393;-77
2022/01/27 06:42:29;;;;;;;4.20;3.13;;;;;;;-0.55;100.00;61943.13;6092353;23;20450;-76
2022/01/27 06:44:56;;;;;;;3.90;3.67;;;;;;;-0.48;100.00;61954.78;6090373;23;20193;-77
2022/01/27 06:47:22;;;;;;;5.03;3.88;;;;;;;-0.38;100.00;61963.03;6092772;23;20173;-77
2022/01/27 06:49:49;;;;;;;4.63;3.78;;;;;;;-0.39;100.00;61962.03;6092855;23;20196;-79
2022/01/27 06:52:19;;;;;;;3.50;3.20;;;;;;;-0.46;100.00;61947.34;6087322;23;20537;-78
2022/01/27 06:54:49;;;;;;;3.55;3.03;;;;;;;-0.49;100.00;61948.78;6089108;23;20208;-78
2022/01/27 06:57:16;;;;;;;2.92;2.65;;;;;;;-0.44;100.00;61954.41;6086714;23;20188;-79
2022/01/27 06:59:42;;;;;;;5.53;3.78;;;;;;;-0.30;100.00;61970.75;6085508;23;20621;-79
2022/01/27 07:02:10;;;;;;;3.72;2.63;;;;;;;-0.30;100.00;61966.25;6086303;23;20200;-79
2022/01/27 07:04:37;;;;;;;3.70;3.40;;;;;;;-0.27;100.00;61971.81;6084882;23;20225;-80
2022/01/27 07:07:04;;;;;;;1.63;1.52;;;;;;;-0.32;100.00;61968.69;6088382;23;20195;-79
2022/01/27 07:09:31;;;;;;;2.75;2.55;;;;;;;-0.47;100.00;61950.81;6085264;23;20220;-79
2022/01/27 07:11:59;;;;;;;7.15;3.03;;;;;;;-0.51;100.00;61951.72;6088437;23;20172;-80
2022/01/27 07:14:26;;;;;;;6.47;4.28;;;;;;;-0.84;100.00;61915.94;6089730;23;20224;-81
2022/01/27 07:16:55;;;;;;;3.92;3.42;;;;;;;-0.55;100.00;61943.13;6088620;23;20197;-79
2022/01/27 07:19:22;;;;;;;4.57;3.38;;;;;;;-0.46;100.00;61952.34;6089109;23;20207;-79
2022/01/27 07:21:49;;;;;;;3.75;3.55;;;;;;;-0.37;100.00;61964.09;6089667;23;20212;-79
2022/01/27 07:24:16;;;;;;;5.22;4.03;;;;;;;-0.28;100.00;61972.78;6090045;23;20217;-82
2022/01/27 07:26:43;;;;;;;5.10;3.45;;;;;;;-0.24;100.00;61972.38;6093458;23;20182;-80
2022/01/27 07:29:11;;;;;;;3.47;3.25;;;;;;;-0.26;100.00;61974.84;6094266;23;20212;-81
2022/01/27 07:31:38;;;;;;;2.45;2.35;;;;;;;-0.53;100.00;61947.69;6093784;23;20173;-80
2022/01/27 07:34:05;;;;;;;3.00;2.75;;;;;;;-0.21;100.00;61977.97;6091789;23;20196;-77
2022/01/27 07:36:32;;;;;;;3.35;3.05;;;;;;;0.03;100.00;62004.56;6083717;23;20172;-76
2022/01/27 07:39:01;;;;;;;5.07;3.53;;;;;;;0.00;100.00;62001.47;6083839;23;20173;-76
2022/01/27 07:41:28;;;;;;;3.17;2.88;;;;;;;-0.08;100.00;61991.28;6084527;23;20177;-76
2022/01/27 07:43:55;;;;;;;4.05;3.63;;;;;;;0.11;100.00;62012.75;6082322;23;20181;-77
2022/01/27 07:46:23;;;;;;;4.05;3.58;;;;;;;0.27;100.00;62026.66;6083550;23;20216;-75
2022/01/27 07:48:51;;;;;;;3.22;2.90;;;;;;;0.30;100.00;62029.19;6081196;23;20221;-76
2022/01/27 07:51:18;;;;;;;5.15;3.70;;;;;;;0.29;100.00;62025.69;6083123;23;20199;-77
2022/01/27 07:53:44;;;;;;;3.75;2.85;;;;;;;0.33;100.00;62030.28;6080624;23;20210;-77
2022/01/27 07:56:11;;;;;;;3.13;2.72;;;;;;;0.35;100.00;62037.34;6082601;23;20516;-76
2022/01/27 07:58:40;;;;;;;3.92;3.63;;;;;;;0.29;100.00;62028.19;6081528;23;20173;-76
2022/01/27 08:01:08;;;;;;;6.13;4.13;;;;;;;0.22;100.00;62021.00;6081168;23;20584;-77
2022/01/27 08:03:37;;;;;;;4.88;3.88;;;;;;;0.21;100.00;62020.50;6081246;23;20496;-78
2022/01/27 08:06:04;;;;;;;4.20;3.65;;;;;;;0.17;100.00;62018.91;6081142;23;20196;-76
2022/01/27 08:08:33;;;;;;;6.15;4.63;;;;;;;0.11;100.00;62007.75;6083668;23;20197;-77
2022/01/27 08:11:02;;;;;;;7.43;4.78;;;;;;;0.11;100.00;62015.25;6083769;23;20214;-77
2022/01/27 08:13:28;;;;;;;6.65;4.82;;;;;;;-0.29;100.00;61976.75;6083411;23;20381;-76
2022/01/27 08:15:55;;;;;;;5.82;4.95;;;;;;;0.03;100.00;62005.06;6082016;23;20249;-77
2022/01/27 08:18:22;;;;;;;5.38;4.88;;;;;;;0.24;100.00;62025.56;6080721;23;20244;-77
2022/01/27 08:20:51;;;;;;;7.28;5.10;;;;;;;0.45;100.00;62042.09;6078288;23;20248;-77
2022/01/27 08:23:18;;;;;;;8.43;5.95;;;;;;;0.59;100.00;62056.94;6083985;23;20520;-77
2022/01/27 08:25:49;;;;;;;13.00;6.22;;;;;;;0.30;100.00;62032.22;6086187;23;20200;-78
2022/01/27 08:28:26;;;;;;;9.07;5.47;;;;;;;-0.16;100.00;61983.09;6082859;23;20395;-78
2022/01/27 08:30:55;;;;;;;5.78;5.00;;;;;;;0.23;100.00;62025.03;6082263;23;20207;-77
2022/01/27 08:33:23;;;;;;;6.57;4.43;;;;;;;0.26;100.00;62023.09;6081720;23;20228;-77
2022/01/27 08:35:52;;;;;;;5.47;4.35;;;;;;;0.28;100.00;62025.16;6081475;23;20208;-77
2022/01/27 08:38:19;;;;;;;8.65;6.65;;;;;;;0.28;100.00;62027.66;6079481;23;20352;-77
2022/01/27 08:40:46;;;;;;;6.30;5.07;;;;;;;0.36;100.00;62035.34;6086679;23;20197;-76
2022/01/27 08:43:19;;;;;;;9.80;6.53;;;;;;;0.42;100.00;62042.03;6080162;23;20366;-76
2022/01/27 08:45:46;;;;;;;6.18;5.55;;;;;;;0.56;100.00;62058.34;6083350;23;20209;-76
2022/01/27 08:48:17;;;;;;;10.27;6.53;;;;;;;0.73;100.00;62078.28;6079386;23;20177;-76
2022/01/27 08:50:51;;;;;;;7.95;5.90;;;;;;;0.81;100.00;62081.50;6078345;23;20576;-77
2022/01/27 08:53:20;;;;;;;9.30;6.57;;;;;;;0.94;100.00;62095.34;6078112;23;20183;-77
2022/01/27 08:55:48;;;;;;;7.97;6.43;;;;;;;1.17;100.00;62121.44;6077164;23;20216;-76
2022/01/27 08:58:14;;;;;;;8.75;5.75;;;;;;;0.96;100.00;62099.38;6080601;23;20205;-77
2022/01/27 09:00:42;;;;;;;11.07;5.63;;;;;;;1.13;100.00;62109.81;6080158;23;20204;-76
2022/01/27 09:03:10;;;;;;;7.00;5.05;;;;;;;1.08;100.00;62109.19;6077085;23;20232;-75
2022/01/27 09:05:37;;;;;;;7.55;5.50;;;;;;;0.43;100.00;62043.03;6080689;23;20189;-76
2022/01/27 09:08:04;;;;;;;8.50;5.53;;;;;;;0.63;100.00;62068.03;6080945;23;20196;-76
2022/01/27 09:10:33;;;;;;;7.43;4.78;;;;;;;0.77;100.00;62082.41;6082949;23;20362;-76
2022/01/27 09:13:01;;;;;;;7.25;5.75;;;;;;;0.89;100.00;62089.69;6081485;23;20173;-76
2022/01/27 09:15:28;;;;;;;6.30;5.45;;;;;;;0.55;100.00;62054.84;6080231;23;20216;-76
2022/01/27 09:17:58;;;;;;;5.25;3.53;;;;;;;0.56;100.00;62058.34;6081376;23;20187;-76
2022/01/27 09:20:26;;;;;;;8.52;6.07;;;;;;;0.75;100.00;62078.38;6079509;23;20203;-75
2022/01/27 09:22:55;;;;;;;8.50;6.78;;;;;;;0.61;100.00;62064.00;6079331;23;20165;-75
2022/01/27 09:25:25;;;;;;;7.72;6.63;;;;;;;0.56;100.00;62056.38;6079421;23;20203;-75
2022/01/27 09:27:56;;;;;;;9.68;6.35;;;;;;;0.26;100.00;62027.63;6081128;23;20216;-76
2022/01/27 09:30:30;;;;;;;9.40;6.43;;;;;;;0.56;100.00;62055.84;6081211;23;20193;-75
2022/01/27 09:32:58;;;;;;;10.50;7.07;;;;;;;0.54;100.00;62053.81;6086608;23;20176;-75
2022/01/27 09:35:27;;;;;;;4.82;4.18;;;;;;;0.71;100.00;62071.75;6091493;23;20247;-76
2022/01/27 09:37:55;;;;;;;15.65;9.15;;;;;;;0.49;100.00;62051.69;6090636;23;20176;-75
2022/01/27 09:40:22;;;;;;;14.13;8.05;;;;;;;0.21;100.00;62020.00;6090630;23;20238;-75
2022/01/27 09:42:52;;;;;;;13.18;8.65;;;;;;;0.60;100.00;62063.00;6091121;23;20512;-75
2022/01/27 09:45:31;;;;;;;13.75;8.73;;;;;;;0.20;100.00;62021.97;6092960;23;20204;-76
2022/01/27 09:48:01;;;;;;;10.48;7.72;;;;;;;0.25;100.00;62024.06;6087566;23;20173;-75
2022/01/27 09:50:45;;;;;;;11.00;8.05;;;;;;;0.33;100.00;62032.78;6085591;23;20193;-75
2022/01/27 09:53:12;;;;;;;5.13;4.38;;;;;;;0.09;100.00;62010.19;6084830;23;20220;-76
2022/01/27 09:55:39;;;;;;;12.90;8.25;;;;;;;0.51;100.00;62050.72;6085594;23;20212;-76
2022/01/27 09:58:07;;;;;;;13.15;8.48;;;;;;;0.27;100.00;62024.16;6085327;23;20184;-75
2022/01/27 10:00:36;;;;;;;13.10;8.82;;;;;;;0.44;100.00;62041.56;6079415;23;20521;-76
2022/01/27 10:03:06;;;;;;;13.60;8.63;;;;;;;1.01;100.00;62100.03;6076998;23;20180;-76
2022/01/27 10:05:33;;;;;;;9.68;7.43;;;;;;;1.04;100.00;62102.56;6078171;23;20203;-76
2022/01/27 10:08:06;;;;;;;8.57;7.20;;;;;;;0.67;100.00;62067.66;6078876;23;20241;-76
2022/01/27 10:10:39;;;;;;;11.05;6.68;;;;;;;1.34;100.00;62137.84;6077920;23;20199;-76
2022/01/27 10:13:08;;;;;;;12.65;7.80;;;;;;;1.55;100.00;62161.91;6079088;23;20165;-76
2022/01/27 10:15:42;;;;;;;11.13;7.18;;;;;;;1.16;100.00;62117.38;6088779;23;20217;-76
2022/01/27 10:18:12;;;;;;;10.35;7.90;;;;;;;1.50;100.00;62152.28;6083188;23;20231;-76
2022/01/27 10:20:41;;;;;;;10.95;7.20;;;;;;;1.35;100.00;62138.88;6082730;23;20224;-78
2022/01/27 10:23:14;;;;;;;12.80;9.25;;;;;;;1.06;100.00;62104.63;6085054;23;20176;-78
2022/01/27 10:25:48;;;;;;;10.00;6.35;;;;;;;0.55;100.00;62052.34;6084194;23;20205;-77
2022/01/27 10:28:32;;;;;;;11.70;7.43;;;;;;;0.54;100.00;62054.31;6084580;23;20181;-77
2022/01/27 10:31:07;;;;;;;11.57;8.70;;;;;;;1.01;100.00;62105.03;6087177;23;20187;-76
2022/01/27 10:33:48;;;;;;;12.30;8.13;;;;;;;1.15;100.00;62116.38;6085534;23;20224;-77
2022/01/27 10:36:26;;;;;;;10.73;7.20;;;;;;;1.00;100.00;62103.50;6083950;23;20208;-75
2022/01/27 10:38:56;;;;;;;10.40;7.30;;;;;;;0.81;100.00;62081.50;6083158;23;20236;-77
2022/01/27 10:41:24;;;;;;;11.73;7.18;;;;;;;0.56;100.00;62055.84;6080604;23;20545;-76
2022/01/27 10:44:04;;;;;;;12.93;8.55;;;;;;;0.57;100.00;62056.91;6082172;23;20376;-77
2022/01/27 10:46:33;;;;;;;9.40;6.85;;;;;;;0.65;100.00;62068.13;6080303;23;20463;-76
2022/01/27 10:49:04;;;;;;;9.02;6.72;;;;;;;0.52;100.00;62052.25;6080162;23;20510;-75
2022/01/27 10:51:36;;;;;;;8.18;6.05;;;;;;;0.57;100.00;62054.88;6082213;23;20165;-76
2022/01/27 10:54:05;;;;;;;5.72;5.13;;;;;;;0.28;100.00;62027.66;6082194;23;20177;-74
2022/01/27 10:56:33;;;;;;;13.07;7.90;;;;;;;0.13;100.00;62011.78;6080217;23;20223;-77
2022/01/27 10:59:04;;;;;;;5.60;4.88;;;;;;;0.05;100.00;62006.59;6079651;23;20172;-77
2022/01/27 11:01:34;;;;;;;10.77;7.28;;;;;;;0.20;100.00;62021.97;6079624;23;20161;-77
2022/01/27 11:04:03;;;;;;;7.30;6.07;;;;;;;0.28;100.00;62025.16;6079155;23;20169;-77
2022/01/27 11:06:32;;;;;;;13.98;7.90;;;;;;;0.31;100.00;62030.72;6078760;23;20177;-76
2022/01/27 11:09:02;;;;;;;5.50;4.70;;;;;;;0.58;100.00;62060.94;6080037;23;20187;-76
2022/01/27 11:11:29;;;;;;;7.40;5.18;;;;;;;0.17;100.00;62018.38;6080345;23;20172;-77
2022/01/27 11:13:59;;;;;;;5.72;5.13;;;;;;;0.03;100.00;62001.53;6078859;23;20458;-76
2022/01/27 11:16:34;;;;;;;7.70;5.50;;;;;;;0.36;100.00;62035.34;6079187;23;20192;-76
2022/01/27 11:19:17;;;;;;;7.00;5.57;;;;;;;0.23;100.00;62025.03;6079115;23;20173;-78
2022/01/27 11:21:50;;;;;;;4.28;3.88;;;;;;;0.28;100.00;62024.66;6079704;23;20377;-77
2022/01/27 11:24:26;;;;;;;5.93;4.22;;;;;;;0.53;99.95;62055.81;6080771;23;20569;-77
2022/01/27 11:26:56;;;;;;;5.15;4.65;;;;;;;0.52;97.36;62049.75;6079798;23;20165;-77
2022/01/27 11:29:26;;;;;;;6.55;4.88;;;;;;;0.54;97.20;62056.81;6078138;23;20521;-77
2022/01/27 11:32:27;;;;;;;5.63;4.40;;;;;;;0.84;97.48;62082.59;6078891;23;20176;-76
2022/01/27 11:34:56;;;;;;;5.43;4.25;;;;;;;0.82;95.53;62080.53;6019053;23;20218;-77
2022/01/27 11:37:34;;;;;;;6.03;5.00;;;;;;;1.05;95.86;62106.13;6080249;23;20177;-77
2022/01/27 11:40:07;;;;;;;8.38;4.95;;;;;;;1.15;95.77;62116.38;6080942;23;20234;-76
2022/01/27 11:43:05;;;;;;;6.28;5.07;;;;;;;1.26;95.71;62124.63;6080291;23;20173;-77
2022/01/27 11:45:36;;;;;;;5.60;4.88;;;;;;;1.09;95.88;62113.22;6081518;23;20217;-77
2022/01/27 11:48:10;;;;;;;4.85;4.22;;;;;;;1.28;94.97;62129.19;6080343;23;20176;-78
2022/01/27 11:50:50;;;;;;;5.20;4.70;;;;;;;0.95;97.08;62098.88;6079225;23;20220;-77
2022/01/27 11:53:36;;;;;;;7.38;5.50;;;;;;;1.10;98.30;62111.75;6081859;23;20389;-78
2022/01/27 11:56:05;;;;;;;5.70;4.60;;;;;;;1.23;99.57;62122.06;6084125;23;20256;-76
2022/01/27 11:58:43;;;;;;;4.68;4.28;;;;;;;1.34;99.06;62132.84;6082938;23;20328;-77
2022/01/27 12:01:17;;;;;;;5.90;5.15;;;;;;;1.18;97.63;62119.44;6080659;23;20184;-76